Darstellungsparameter: Aktuell verwendete Einstellungen:
Skalierung der Graphiken ... ?
xyx+y,   Skalierungsfaktor:      Skalierung: Modus: x, Faktor: 1
Darstellungszeitraum ... ?
Vom - - bis: - -   Zeitraum: 19.03.2019 - 19.03.2019
Min/Max/Avg-Anzeige ... ?
Zeige MMA aktuell
Zeige MMA Monat
Zeige MMA alles
Zeige --A aktuell
Zeige --A Monat
Zeige --A alles
Keine MMA-Anzeige
MMA:
Keine MMA-Graphiken
MMA-Basis: 19.03.2019 - 19.03.2019
Quicknavigation für Darstellung... ?
Tage:      1T, 2T, 3T, 5T -1T -2T -3T -5T +1T +2T +3T +5T
Wochen: 1W, 2W, 3W -1W -2W -3W +1W +2W +3W
Monate: 1M, 3M, 6M -1M -3M -6M +1M +3M +6M
Jahre:    1J, 3J, 5J, 10J -1J -3J -5J -10J +1J +3J +5J +10J
Nutze für die Darstellung ... ?
Originaldaten oder Mittelwerte auf ...
Stundenbasis Tagesbasis Wochenbasis
Monatsbasis Jahresbasis      Datenbasis: Original-Daten
Darstellen als:
Statistik (Auto) Statistik J:M      Darstellung:
Zur Graphik,    zurück zur Übersicht aller Sensoren.
 
Tabellarische Datenbersicht: ?
 
Sensor: Nr:Datum:Temp:Abs-Feuchte:Windchill:Wind:
Aussen-T/F 1 19-03-2019 00:00:00 1.2 C 4.84 g/m*3 1.2 C 0 km/h
2 19-03-2019 00:05:00 1.1 C 4.81 g/m*3 1.1 C 0 km/h
3 19-03-2019 00:10:00 1.1 C 4.81 g/m*3 1.1 C 0 km/h
4 19-03-2019 00:15:00 1.1 C 4.86 g/m*3 1.1 C 0 km/h
5 19-03-2019 00:20:00 1.1 C 4.81 g/m*3 1.1 C 0 km/h
6 19-03-2019 00:25:00 1.1 C 4.86 g/m*3 1.1 C 0 km/h
7 19-03-2019 00:30:00 1 C 4.83 g/m*3 1 C 0 km/h
8 19-03-2019 00:35:00 0.9 C 4.74 g/m*3 0.9 C 0 km/h
9 19-03-2019 00:40:00 0.8 C 4.71 g/m*3 0.8 C 0 km/h
10 19-03-2019 00:45:00 0.7 C 4.68 g/m*3 0.7 C 0 km/h
11 19-03-2019 00:50:00 0.6 C 4.65 g/m*3 0.6 C 0 km/h
12 19-03-2019 00:55:00 0.5 C 4.66 g/m*3 0.5 C 0 km/h
13 19-03-2019 01:00:00 0.5 C 4.66 g/m*3 0.5 C 0 km/h
14 19-03-2019 01:05:00 0.5 C 4.66 g/m*3 0.5 C 0 km/h
15 19-03-2019 01:10:00 0.5 C 4.66 g/m*3 0.5 C 0 km/h
16 19-03-2019 01:15:00 0.4 C 4.63 g/m*3 0.4 C 0 km/h
17 19-03-2019 01:20:00 0.4 C 4.63 g/m*3 0.4 C 0 km/h
18 19-03-2019 01:25:00 0.3 C 4.6 g/m*3 0.3 C 0 km/h
19 19-03-2019 01:30:00 0.3 C 4.6 g/m*3 0.3 C 0 km/h
20 19-03-2019 01:35:00 0.3 C 4.6 g/m*3 0.3 C 0 km/h
21 19-03-2019 01:40:00 0.4 C 4.63 g/m*3 0.4 C 0 km/h
22 19-03-2019 01:45:00 0.3 C 4.6 g/m*3 0.3 C 0 km/h
23 19-03-2019 01:50:00 0.2 C 4.57 g/m*3 0.2 C 0 km/h
24 19-03-2019 01:55:00 0.2 C 4.57 g/m*3 0.2 C 0 km/h
25 19-03-2019 02:00:00 0.1 C 4.54 g/m*3 0.1 C 0 km/h
Sensor: Nr:Datum:Temp:Abs-Feuchte:Windchill:Wind:
Aussen-T/F 26 19-03-2019 02:05:00 0.1 C 4.54 g/m*3 0.1 C 0 km/h
27 19-03-2019 02:10:00 -0.1 C 4.47 g/m*3 -0.1 C 0 km/h
28 19-03-2019 02:15:00 -0.1 C 4.47 g/m*3 -0.1 C 0 km/h
29 19-03-2019 02:20:00 -0.1 C 4.52 g/m*3 -0.1 C 0 km/h
30 19-03-2019 02:25:00 -0.1 C 4.52 g/m*3 -0.1 C 0 km/h
31 19-03-2019 02:30:00 -0.1 C 4.52 g/m*3 -0.1 C 0 km/h
32 19-03-2019 02:35:00 0 C 4.55 g/m*3 0 C 0 km/h
33 19-03-2019 02:40:00 -0.1 C 4.52 g/m*3 -0.1 C 0 km/h
34 19-03-2019 02:45:00 -0.1 C 4.52 g/m*3 -0.1 C 0 km/h
35 19-03-2019 02:50:00 -0.1 C 4.52 g/m*3 -0.1 C 0 km/h
36 19-03-2019 02:55:00 0.1 C 4.59 g/m*3 0.1 C 0 km/h
37 19-03-2019 03:00:00 0 C 4.55 g/m*3 0 C 0 km/h
38 19-03-2019 03:05:00 -0.1 C 4.52 g/m*3 -0.1 C 0 km/h
39 19-03-2019 03:10:00 -0.2 C 4.49 g/m*3 -0.2 C 0 km/h
40 19-03-2019 03:15:00 -0.2 C 4.49 g/m*3 -0.2 C 0 km/h
41 19-03-2019 03:20:00 -0.2 C 4.49 g/m*3 -0.2 C 0 km/h
42 19-03-2019 03:25:00 -0.3 C 4.46 g/m*3 -0.3 C 0 km/h
43 19-03-2019 03:30:00 -0.3 C 4.46 g/m*3 -0.3 C 0 km/h
44 19-03-2019 03:35:00 -0.4 C 4.43 g/m*3 -0.4 C 0 km/h
45 19-03-2019 03:40:00 -0.4 C 4.43 g/m*3 -0.4 C 0 km/h
46 19-03-2019 03:45:00 -0.4 C 4.43 g/m*3 -0.4 C 0 km/h
47 19-03-2019 03:50:00 -0.5 C 4.4 g/m*3 -0.5 C 0 km/h
48 19-03-2019 03:55:00 -0.6 C 4.37 g/m*3 -0.6 C 0 km/h
49 19-03-2019 04:00:00 -0.7 C 4.34 g/m*3 -0.7 C 0 km/h
50 19-03-2019 04:05:00 -0.7 C 4.34 g/m*3 -0.7 C 0 km/h
Sensor: Nr:Datum:Temp:Abs-Feuchte:Windchill:Wind:
Aussen-T/F 51 19-03-2019 04:10:00 -0.7 C 4.34 g/m*3 -0.7 C 0 km/h
52 19-03-2019 04:15:00 -0.7 C 4.34 g/m*3 -0.7 C 0 km/h
53 19-03-2019 04:20:00 -0.6 C 4.37 g/m*3 -0.6 C 0 km/h
54 19-03-2019 04:25:00 -0.6 C 4.37 g/m*3 -0.6 C 0 km/h
55 19-03-2019 04:30:00 -0.6 C 4.37 g/m*3 -0.6 C 0 km/h
56 19-03-2019 04:35:00 -0.7 C 4.34 g/m*3 -0.7 C 0 km/h
57 19-03-2019 04:40:00 -0.8 C 4.31 g/m*3 -0.8 C 0 km/h
58 19-03-2019 04:45:00 -0.8 C 4.31 g/m*3 -0.8 C 0 km/h
59 19-03-2019 04:50:00 -0.8 C 4.31 g/m*3 -0.8 C 0 km/h
60 19-03-2019 04:55:00 -0.8 C 4.31 g/m*3 -0.8 C 0 km/h
61 19-03-2019 05:00:00 -0.9 C 4.28 g/m*3 -0.9 C 0 km/h
62 19-03-2019 05:05:00 -1 C 4.25 g/m*3 -1 C 0 km/h
63 19-03-2019 05:10:00 -1 C 4.25 g/m*3 -1 C 0 km/h
64 19-03-2019 05:15:00 -1.1 C 4.22 g/m*3 -1.1 C 0 km/h
65 19-03-2019 05:20:00 -1.1 C 4.22 g/m*3 -1.1 C 0 km/h
66 19-03-2019 05:25:00 -1.1 C 4.22 g/m*3 -1.1 C 0 km/h
67 19-03-2019 05:30:00 -1.1 C 4.22 g/m*3 -1.1 C 0 km/h
68 19-03-2019 05:35:00 -1 C 4.29 g/m*3 -1 C 0 km/h
69 19-03-2019 05:40:00 -0.9 C 4.32 g/m*3 -0.9 C 0 km/h
70 19-03-2019 05:45:00 -0.9 C 4.32 g/m*3 -0.9 C 0 km/h
71 19-03-2019 05:50:00 -1.1 C 4.22 g/m*3 -1.1 C 0 km/h
72 19-03-2019 05:55:00 -1.2 C 4.19 g/m*3 -1.2 C 0 km/h
73 19-03-2019 06:00:00 -1.2 C 4.19 g/m*3 -1.2 C 0 km/h
74 19-03-2019 06:05:00 -1.3 C 4.16 g/m*3 -1.3 C 0 km/h
75 19-03-2019 06:10:00 -1.3 C 4.16 g/m*3 -1.3 C 0 km/h
Sensor: Nr:Datum:Temp:Abs-Feuchte:Windchill:Wind:
Aussen-T/F 76 19-03-2019 06:15:00 -1.3 C 4.21 g/m*3 -1.3 C 0 km/h
77 19-03-2019 06:20:00 -1.3 C 4.21 g/m*3 -1.3 C 0 km/h
78 19-03-2019 06:25:00 -1.3 C 4.16 g/m*3 -1.3 C 0 km/h
79 19-03-2019 06:30:00 -1.1 C 4.26 g/m*3 -1.1 C 0 km/h
80 19-03-2019 06:35:00 -1.1 C 4.26 g/m*3 -1.1 C 0 km/h
81 19-03-2019 06:40:00 -1.1 C 4.26 g/m*3 -1.1 C 0 km/h
82 19-03-2019 06:45:00 -1.1 C 4.26 g/m*3 -1.1 C 0 km/h
83 19-03-2019 06:50:00 -1.2 C 4.24 g/m*3 -1.2 C 0 km/h
84 19-03-2019 06:55:00 -1.1 C 4.26 g/m*3 -1.1 C 0 km/h
85 19-03-2019 07:00:00 -1 C 4.29 g/m*3 -1 C 0 km/h
86 19-03-2019 07:05:00 -0.9 C 4.32 g/m*3 -0.9 C 0 km/h
87 19-03-2019 07:10:00 -0.8 C 4.35 g/m*3 -0.8 C 0 km/h
88 19-03-2019 07:15:00 -0.7 C 4.39 g/m*3 -0.7 C 0 km/h
89 19-03-2019 07:20:00 -0.5 C 4.45 g/m*3 -0.5 C 0 km/h
90 19-03-2019 07:25:00 -0.4 C 4.48 g/m*3 -0.4 C 0 km/h
91 19-03-2019 07:30:00 -0.3 C 4.56 g/m*3 -0.3 C 1.6 km/h
92 19-03-2019 07:35:00 -0.2 C 4.54 g/m*3 -0.2 C 0 km/h
93 19-03-2019 07:40:00 -0.1 C 4.57 g/m*3 -0.1 C 1.6 km/h
94 19-03-2019 07:45:00 0.1 C 4.68 g/m*3 0.1 C 4.8 km/h
95 19-03-2019 07:50:00 0.1 C 4.63 g/m*3 0.1 C 1.6 km/h
96 19-03-2019 07:55:00 0.2 C 4.67 g/m*3 0.2 C 0 km/h
97 19-03-2019 08:00:00 0.2 C 4.67 g/m*3 0.2 C 0 km/h
98 19-03-2019 08:05:00 0.1 C 4.63 g/m*3 0.1 C 0 km/h
99 19-03-2019 08:10:00 0.1 C 4.63 g/m*3 0.1 C 0 km/h
100 19-03-2019 08:15:00 -0.1 C 4.57 g/m*3 -0.1 C 0 km/h
Sensor: Nr:Datum:Temp:Abs-Feuchte:Windchill:Wind:
Aussen-T/F 101 19-03-2019 08:20:00 -0.2 C 4.54 g/m*3 -0.2 C 0 km/h
102 19-03-2019 08:25:00 -0.2 C 4.54 g/m*3 -0.2 C 0 km/h
103 19-03-2019 08:30:00 -0.2 C 4.54 g/m*3 -0.2 C 0 km/h
104 19-03-2019 08:35:00 -0.2 C 4.54 g/m*3 -0.2 C 0 km/h
105 19-03-2019 08:40:00 -0.2 C 4.54 g/m*3 -0.2 C 0 km/h
106 19-03-2019 08:45:00 -0.1 C 4.57 g/m*3 -0.1 C 0 km/h
107 19-03-2019 08:50:00 0.1 C 4.63 g/m*3 0.1 C 0 km/h
108 19-03-2019 08:55:00 0.2 C 4.67 g/m*3 0.2 C 0 km/h
109 19-03-2019 09:00:00 0.2 C 4.67 g/m*3 0.2 C 0 km/h
110 19-03-2019 09:05:00 0.3 C 4.7 g/m*3 0.3 C 0 km/h
111 19-03-2019 09:10:00 0.4 C 4.73 g/m*3 0.4 C 0 km/h
112 19-03-2019 09:15:00 0.5 C 4.76 g/m*3 0.5 C 0 km/h
113 19-03-2019 09:20:00 0.6 C 4.8 g/m*3 0.6 C 0 km/h
114 19-03-2019 09:25:00 0.6 C 4.8 g/m*3 0.6 C 0 km/h
115 19-03-2019 09:30:00 0.7 C 4.83 g/m*3 0.7 C 1.6 km/h
116 19-03-2019 09:35:00 0.7 C 4.83 g/m*3 0.7 C 0 km/h
117 19-03-2019 09:40:00 0.8 C 4.86 g/m*3 0.8 C 0 km/h
118 19-03-2019 09:45:00 0.9 C 4.9 g/m*3 0.9 C 0 km/h
119 19-03-2019 09:50:00 1.1 C 4.96 g/m*3 1.1 C 0 km/h
120 19-03-2019 09:55:00 1.3 C 5.09 g/m*3 1.3 C 0 km/h
121 19-03-2019 10:00:00 1.5 C 5.1 g/m*3 1.5 C 0 km/h
122 19-03-2019 10:05:00 1.7 C 5.17 g/m*3 1.7 C 0 km/h
123 19-03-2019 10:10:00 1.8 C 5.21 g/m*3 1.8 C 0 km/h
124 19-03-2019 10:15:00 1.9 C 5.24 g/m*3 1.9 C 0 km/h
125 19-03-2019 10:20:00 2.2 C 5.35 g/m*3 2.2 C 0 km/h
Sensor: Nr:Datum:Temp:Abs-Feuchte:Windchill:Wind:
Aussen-T/F 126 19-03-2019 10:25:00 2.3 C 5.39 g/m*3 2.3 C 0 km/h
127 19-03-2019 10:30:00 2.5 C 5.46 g/m*3 2.5 C 0 km/h
128 19-03-2019 10:35:00 2.6 C 5.44 g/m*3 2.6 C 0 km/h
129 19-03-2019 10:40:00 2.7 C 5.48 g/m*3 2.7 C 0 km/h
130 19-03-2019 10:45:00 2.8 C 5.51 g/m*3 2.8 C 0 km/h
131 19-03-2019 10:50:00 3.1 C 5.63 g/m*3 3.1 C 0 km/h
132 19-03-2019 10:55:00 3.3 C 5.7 g/m*3 3.3 C 0 km/h
133 19-03-2019 11:00:00 3.7 C 5.86 g/m*3 3.7 C 0 km/h
134 19-03-2019 11:05:00 3.8 C 5.9 g/m*3 3.8 C 0 km/h
135 19-03-2019 11:10:00 4.1 C 6.02 g/m*3 4.1 C 0 km/h
136 19-03-2019 11:15:00 4.3 C 6.1 g/m*3 4.3 C 0 km/h
137 19-03-2019 11:20:00 4.6 C 6.09 g/m*3 4.6 C 0 km/h
138 19-03-2019 11:25:00 4.9 C 6.14 g/m*3 4.9 C 0 km/h
139 19-03-2019 11:30:00 5.3 C 6.1 g/m*3 5.3 C 0 km/h
140 19-03-2019 11:35:00 5.6 C 5.73 g/m*3 5.6 C 0 km/h
141 19-03-2019 11:40:00 5.9 C 5.77 g/m*3 5.9 C 4.8 km/h
142 19-03-2019 11:45:00 6.3 C 5.85 g/m*3 6.3 C 1.6 km/h
143 19-03-2019 11:50:00 6.4 C 5.66 g/m*3 6.4 C 3.2 km/h
144 19-03-2019 11:55:00 6.6 C 5.51 g/m*3 4.63 C 9.7 km/h
145 19-03-2019 12:00:00 6.7 C 5.55 g/m*3 6.7 C 4.8 km/h
146 19-03-2019 12:05:00 6.8 C 5.51 g/m*3 6.8 C 4.8 km/h
147 19-03-2019 12:10:00 6.9 C 5.54 g/m*3 6.9 C 0 km/h
148 19-03-2019 12:15:00 7.1 C 5.62 g/m*3 7.1 C 0 km/h
149 19-03-2019 12:20:00 7.1 C 5.38 g/m*3 7.1 C 0 km/h
150 19-03-2019 12:25:00 7.2 C 5.42 g/m*3 7.2 C 3.2 km/h
Sensor: Nr:Datum:Temp:Abs-Feuchte:Windchill:Wind:
Aussen-T/F 151 19-03-2019 12:30:00 7.4 C 5.41 g/m*3 7.4 C 0 km/h
152 19-03-2019 12:35:00 7.5 C 5.28 g/m*3 5.7 C 9.7 km/h
153 19-03-2019 12:40:00 7.6 C 5.24 g/m*3 6.16 C 8.1 km/h
154 19-03-2019 12:45:00 7.6 C 5.24 g/m*3 7.6 C 4.8 km/h
155 19-03-2019 12:50:00 7.7 C 5.43 g/m*3 7.7 C 4.8 km/h
156 19-03-2019 12:55:00 7.9 C 5.42 g/m*3 7.9 C 4.8 km/h
157 19-03-2019 13:00:00 8.2 C 5.36 g/m*3 8.2 C 3.2 km/h
158 19-03-2019 13:05:00 8.3 C 5.23 g/m*3 8.3 C 4.8 km/h
159 19-03-2019 13:10:00 8.5 C 5.21 g/m*3 7.22 C 8.1 km/h
160 19-03-2019 13:15:00 8.7 C 5.28 g/m*3 6.85 C 11.3 km/h
161 19-03-2019 13:20:00 8.8 C 5.14 g/m*3 8.8 C 4.8 km/h
162 19-03-2019 13:25:00 9 C 5.03 g/m*3 9 C 3.2 km/h
163 19-03-2019 13:30:00 9.1 C 5.06 g/m*3 7.09 C 12.9 km/h
164 19-03-2019 13:35:00 9.1 C 4.97 g/m*3 7.09 C 12.9 km/h
165 19-03-2019 13:40:00 9.2 C 5.09 g/m*3 7.46 C 11.3 km/h
166 19-03-2019 13:45:00 9.3 C 5.03 g/m*3 7.58 C 11.3 km/h
167 19-03-2019 13:50:00 9.4 C 4.97 g/m*3 8.68 C 6.4 km/h
168 19-03-2019 13:55:00 9.6 C 5.22 g/m*3 9.6 C 3.2 km/h
169 19-03-2019 14:00:00 9.8 C 5.29 g/m*3 8.75 C 8.1 km/h
170 19-03-2019 14:05:00 9.8 C 5.29 g/m*3 8.45 C 9.7 km/h
171 19-03-2019 14:10:00 9.8 C 5.38 g/m*3 8.75 C 8.1 km/h
172 19-03-2019 14:15:00 9.9 C 5.23 g/m*3 9.9 C 4.8 km/h
173 19-03-2019 14:20:00 9.9 C 5.32 g/m*3 9.9 C 1.6 km/h
174 19-03-2019 14:25:00 10 C 5.26 g/m*3 10 C 4.8 km/h
175 19-03-2019 14:30:00 10.1 C 5.39 g/m*3 10.1 C 1.6 km/h
Sensor: Nr:Datum:Temp:Abs-Feuchte:Windchill:Wind:
Aussen-T/F 176 19-03-2019 14:35:00 10.2 C 5.52 g/m*3 10.2 C 0 km/h
177 19-03-2019 14:40:00 10.2 C 5.23 g/m*3 10.2 C 4.8 km/h
178 19-03-2019 14:45:00 10.1 C 5.2 g/m*3 9.48 C 6.4 km/h
179 19-03-2019 14:50:00 10 C 5.17 g/m*3 10 C 4.8 km/h
180 19-03-2019 14:55:00 9.9 C 5.32 g/m*3 9.25 C 6.4 km/h
181 19-03-2019 15:00:00 9.9 C 5.51 g/m*3 8.06 C 12.9 km/h
182 19-03-2019 15:05:00 9.9 C 5.32 g/m*3 8.87 C 8.1 km/h
183 19-03-2019 15:10:00 9.9 C 5.14 g/m*3 9.9 C 4.8 km/h
184 19-03-2019 15:15:00 9.9 C 5.32 g/m*3 9.25 C 6.4 km/h
185 19-03-2019 15:20:00 9.9 C 4.95 g/m*3 9.9 C 4.8 km/h
186 19-03-2019 15:25:00 9.9 C 4.95 g/m*3 9.9 C 1.6 km/h
187 19-03-2019 15:30:00 10.1 C 4.82 g/m*3 8.54 C 11.3 km/h
188 19-03-2019 15:35:00 10.3 C 4.98 g/m*3 8.55 C 12.9 km/h
189 19-03-2019 15:40:00 10.4 C 4.92 g/m*3 9.16 C 9.7 km/h
190 19-03-2019 15:45:00 10.5 C 4.85 g/m*3 9.28 C 9.7 km/h
191 19-03-2019 15:50:00 10.5 C 4.95 g/m*3 9.28 C 9.7 km/h
192 19-03-2019 15:55:00 10.6 C 4.88 g/m*3 9.69 C 8.1 km/h
193 19-03-2019 16:00:00 10.7 C 4.91 g/m*3 10.18 C 6.4 km/h
194 19-03-2019 16:05:00 10.8 C 4.94 g/m*3 9.93 C 8.1 km/h
195 19-03-2019 16:10:00 10.9 C 4.97 g/m*3 10.04 C 8.1 km/h
196 19-03-2019 16:15:00 11.1 C 5.24 g/m*3 11.1 C 8.1 km/h
197 19-03-2019 16:20:00 11.2 C 4.97 g/m*3 11.2 C 1.6 km/h
198 19-03-2019 16:25:00 11.3 C 5.41 g/m*3 11.3 C 0 km/h
199 19-03-2019 16:30:00 11.7 C 5.33 g/m*3 11.7 C 1.6 km/h
200 19-03-2019 16:35:00 12 C 5.01 g/m*3 12 C 4.8 km/h
Sensor: Nr:Datum:Temp:Abs-Feuchte:Windchill:Wind:
Aussen-T/F 201 19-03-2019 16:40:00 12.1 C 4.93 g/m*3 12.1 C 4.8 km/h
202 19-03-2019 16:45:00 12.1 C 4.93 g/m*3 12.1 C 0 km/h
203 19-03-2019 16:50:00 12.2 C 4.75 g/m*3 12.2 C 9.7 km/h
204 19-03-2019 16:55:00 12.1 C 4.72 g/m*3 12.1 C 6.4 km/h
205 19-03-2019 17:00:00 11.9 C 4.55 g/m*3 11.9 C 12.9 km/h
206 19-03-2019 17:05:00 11.8 C 4.74 g/m*3 11.8 C 8.1 km/h
207 19-03-2019 17:10:00 11.9 C 4.66 g/m*3 11.9 C 9.7 km/h
208 19-03-2019 17:15:00 12.1 C 5.04 g/m*3 12.1 C 4.8 km/h
209 19-03-2019 17:20:00 12.2 C 4.96 g/m*3 12.2 C 3.2 km/h
210 19-03-2019 17:25:00 12.3 C 4.78 g/m*3 12.3 C 4.8 km/h
211 19-03-2019 17:30:00 12.3 C 4.89 g/m*3 12.3 C 8.1 km/h
212 19-03-2019 17:35:00 12.2 C 4.86 g/m*3 12.2 C 9.7 km/h
213 19-03-2019 17:40:00 11.9 C 4.77 g/m*3 11.9 C 8.1 km/h
214 19-03-2019 17:45:00 11.8 C 4.95 g/m*3 11.8 C 1.6 km/h
215 19-03-2019 17:50:00 11.9 C 4.77 g/m*3 11.9 C 4.8 km/h
216 19-03-2019 17:55:00 11.8 C 5.05 g/m*3 11.8 C 6.4 km/h
217 19-03-2019 18:00:00 11.8 C 4.95 g/m*3 11.8 C 0 km/h
218 19-03-2019 18:05:00 11.7 C 5.54 g/m*3 11.7 C 0 km/h
219 19-03-2019 18:10:00 11.6 C 5.82 g/m*3 11.6 C 0 km/h
220 19-03-2019 18:15:00 11.4 C 5.75 g/m*3 11.4 C 0 km/h
221 19-03-2019 18:20:00 11 C 5.41 g/m*3 11 C 0 km/h
222 19-03-2019 18:25:00 10.3 C 5.46 g/m*3 10.3 C 0 km/h
223 19-03-2019 18:30:00 9.5 C 5.46 g/m*3 9.5 C 0 km/h
224 19-03-2019 18:35:00 8.8 C 5.57 g/m*3 8.8 C 0 km/h
225 19-03-2019 18:40:00 8.2 C 5.61 g/m*3 8.2 C 0 km/h
Sensor: Nr:Datum:Temp:Abs-Feuchte:Windchill:Wind:
Aussen-T/F 226 19-03-2019 18:45:00 7.6 C 5.64 g/m*3 7.6 C 0 km/h
227 19-03-2019 18:50:00 7.1 C 5.62 g/m*3 7.1 C 0 km/h
228 19-03-2019 18:55:00 6.8 C 5.58 g/m*3 6.8 C 0 km/h
229 19-03-2019 19:00:00 6.5 C 5.47 g/m*3 6.5 C 0 km/h
230 19-03-2019 19:05:00 6.2 C 5.44 g/m*3 6.2 C 0 km/h
231 19-03-2019 19:10:00 6.1 C 5.48 g/m*3 6.1 C 0 km/h
232 19-03-2019 19:15:00 5.9 C 5.48 g/m*3 5.9 C 0 km/h
233 19-03-2019 19:20:00 5.7 C 5.48 g/m*3 5.7 C 0 km/h
234 19-03-2019 19:25:00 5.6 C 5.51 g/m*3 5.6 C 0 km/h
235 19-03-2019 19:30:00 5.4 C 5.44 g/m*3 5.4 C 0 km/h
236 19-03-2019 19:35:00 5.3 C 5.48 g/m*3 5.3 C 0 km/h
237 19-03-2019 19:40:00 5.2 C 5.44 g/m*3 5.2 C 0 km/h
238 19-03-2019 19:45:00 5.1 C 5.4 g/m*3 5.1 C 0 km/h
239 19-03-2019 19:50:00 5.1 C 5.4 g/m*3 5.1 C 0 km/h
240 19-03-2019 19:55:00 5.1 C 5.4 g/m*3 5.1 C 0 km/h
241 19-03-2019 20:00:00 5 C 5.37 g/m*3 5 C 0 km/h
242 19-03-2019 20:05:00 4.8 C 5.3 g/m*3 4.8 C 0 km/h
243 19-03-2019 20:10:00 4.8 C 5.36 g/m*3 4.8 C 0 km/h
244 19-03-2019 20:15:00 4.7 C 5.33 g/m*3 4.7 C 0 km/h
245 19-03-2019 20:20:00 4.6 C 5.36 g/m*3 4.6 C 0 km/h
246 19-03-2019 20:25:00 4.4 C 5.29 g/m*3 4.4 C 0 km/h
247 19-03-2019 20:30:00 4.3 C 5.32 g/m*3 4.3 C 0 km/h
248 19-03-2019 20:35:00 4.2 C 5.28 g/m*3 4.2 C 0 km/h
249 19-03-2019 20:40:00 4.2 C 5.35 g/m*3 4.2 C 0 km/h
250 19-03-2019 20:45:00 4.1 C 5.38 g/m*3 4.1 C 0 km/h
Sensor: Nr:Datum:Temp:Abs-Feuchte:Windchill:Wind:
Aussen-T/F 251 19-03-2019 20:50:00 3.9 C 5.24 g/m*3 3.9 C 0 km/h
252 19-03-2019 20:55:00 3.8 C 5.27 g/m*3 3.8 C 0 km/h
253 19-03-2019 21:00:00 3.7 C 5.3 g/m*3 3.7 C 0 km/h
254 19-03-2019 21:05:00 3.6 C 5.26 g/m*3 3.6 C 0 km/h
255 19-03-2019 21:10:00 3.6 C 5.26 g/m*3 3.6 C 0 km/h
256 19-03-2019 21:15:00 3.4 C 5.19 g/m*3 3.4 C 0 km/h
257 19-03-2019 21:20:00 3.3 C 5.16 g/m*3 3.3 C 0 km/h
258 19-03-2019 21:25:00 3.3 C 5.16 g/m*3 3.3 C 0 km/h
259 19-03-2019 21:30:00 3.1 C 5.09 g/m*3 3.1 C 0 km/h
260 19-03-2019 21:35:00 2.9 C 5.02 g/m*3 2.9 C 0 km/h
261 19-03-2019 21:40:00 2.8 C 4.99 g/m*3 2.8 C 0 km/h
262 19-03-2019 21:45:00 2.6 C 4.86 g/m*3 2.6 C 0 km/h
263 19-03-2019 21:50:00 2.5 C 4.89 g/m*3 2.5 C 0 km/h
264 19-03-2019 21:55:00 2.4 C 4.91 g/m*3 2.4 C 0 km/h
265 19-03-2019 22:00:00 2.4 C 4.91 g/m*3 2.4 C 0 km/h
266 19-03-2019 22:05:00 2.3 C 4.88 g/m*3 2.3 C 0 km/h
267 19-03-2019 22:10:00 2.2 C 4.84 g/m*3 2.2 C 0 km/h
268 19-03-2019 22:15:00 2.1 C 4.81 g/m*3 2.1 C 0 km/h
269 19-03-2019 22:20:00 2.1 C 4.87 g/m*3 2.1 C 0 km/h
270 19-03-2019 22:25:00 1.9 C 4.8 g/m*3 1.9 C 0 km/h
271 19-03-2019 22:30:00 1.8 C 4.77 g/m*3 1.8 C 0 km/h
272 19-03-2019 22:35:00 1.9 C 4.8 g/m*3 1.9 C 0 km/h
273 19-03-2019 22:40:00 1.9 C 4.86 g/m*3 1.9 C 0 km/h
274 19-03-2019 22:45:00 1.9 C 4.86 g/m*3 1.9 C 0 km/h
275 19-03-2019 22:50:00 1.9 C 4.86 g/m*3 1.9 C 0 km/h
Sensor: Nr:Datum:Temp:Abs-Feuchte:Windchill:Wind:
Aussen-T/F 276 19-03-2019 22:55:00 1.9 C 4.86 g/m*3 1.9 C 0 km/h
277 19-03-2019 23:00:00 1.8 C 4.82 g/m*3 1.8 C 0 km/h
278 19-03-2019 23:05:00 1.8 C 4.82 g/m*3 1.8 C 0 km/h
279 19-03-2019 23:10:00 1.7 C 4.79 g/m*3 1.7 C 0 km/h
280 19-03-2019 23:15:00 1.7 C 4.79 g/m*3 1.7 C 1.6 km/h
281 19-03-2019 23:20:00 1.8 C 4.82 g/m*3 1.8 C 0 km/h
282 19-03-2019 23:25:00 1.9 C 4.86 g/m*3 1.9 C 0 km/h
283 19-03-2019 23:30:00 1.8 C 4.77 g/m*3 1.8 C 0 km/h
284 19-03-2019 23:35:00 1.7 C 4.74 g/m*3 1.7 C 0 km/h
285 19-03-2019 23:40:00 1.7 C 4.74 g/m*3 1.7 C 0 km/h
286 19-03-2019 23:45:00 1.6 C 4.76 g/m*3 1.6 C 0 km/h
287 19-03-2019 23:50:00 1.4 C 4.69 g/m*3 1.4 C 0 km/h
288 19-03-2019 23:55:00 1.3 C 4.66 g/m*3 1.3 C 0 km/h

Legende:
   Min
   Max


Maximal/Minimal-Werte vom 19.03.2019 - 19.03.2019

Sensor Min Max Avg
Temp
(Aussen-T/F)
-1.3 °C
19-03-2019  06:05:00
12.3 °C
19-03-2019  17:25:00
3.84 °C
Abs-Feuchte
(Aussen-T/F)
4.16 g/m*3
19-03-2019  06:05:00
6.14 g/m*3
19-03-2019  11:25:00
4.91 g/m*3
Windchill
(Aussen-T/F)
-1.3 C
19-03-2019  06:05:00
12.3 C
19-03-2019  17:25:00
3.7 C

Die Daten stammen von einer Davis Vantage Pro 2 Wetter-Station und werden unter Linux mit der Software wview2wettercgi und aufbereitet. Alle Angaben erfolgen ohne Gewähr für ihre Vollständigkeit oder Richtigkeit.
Kontakt: Rainer Krienke krienke@uni-koblenz.de . Meine Webseiten an der Uni Koblenz oder privat.
Version: $Revision: 0.78 $